createdAt,value
2023-01-12T00:01:50.167Z,9.70
2023-01-12T00:04:18.469Z,9.90
2023-01-12T00:06:46.612Z,9.60
2023-01-12T00:09:15.408Z,8.90
2023-01-12T00:11:43.458Z,10.50
2023-01-12T00:14:11.417Z,9.80
2023-01-12T00:16:39.586Z,9.50
2023-01-12T00:19:18.085Z,9.00
2023-01-12T00:21:59.148Z,8.80
2023-01-12T00:24:35.060Z,8.60
2023-01-12T00:27:04.466Z,8.50
2023-01-12T00:29:32.731Z,8.40
2023-01-12T00:32:00.946Z,8.60
2023-01-12T00:34:29.794Z,8.60
2023-01-12T00:37:00.288Z,8.30
2023-01-12T00:39:29.015Z,8.40
2023-01-12T00:42:15.877Z,8.90
2023-01-12T00:47:38.020Z,7.50
2023-01-12T00:50:06.095Z,7.70
2023-01-12T00:52:34.002Z,8.70
2023-01-12T00:55:02.631Z,8.80
2023-01-12T00:57:30.356Z,8.70
2023-01-12T01:00:00.407Z,9.00
2023-01-12T01:02:29.375Z,8.40
2023-01-12T01:04:57.603Z,8.40
2023-01-12T01:07:25.811Z,8.30
2023-01-12T01:09:53.819Z,8.80
2023-01-12T01:12:21.808Z,9.10
2023-01-12T01:14:49.713Z,7.80
2023-01-12T01:17:17.781Z,8.80
2023-01-12T01:19:45.651Z,8.40
2023-01-12T01:22:14.744Z,8.30
2023-01-12T01:24:42.707Z,8.90
2023-01-12T01:27:10.782Z,8.80
2023-01-12T01:29:38.741Z,8.50
2023-01-12T01:32:06.904Z,9.40
2023-01-12T01:34:35.092Z,9.00
2023-01-12T01:37:03.364Z,8.60
2023-01-12T01:39:31.237Z,9.00
2023-01-12T01:41:59.048Z,9.30
2023-01-12T01:44:33.161Z,9.00
2023-01-12T01:47:04.010Z,8.80
2023-01-12T01:49:37.783Z,8.70
2023-01-12T01:52:07.732Z,8.60
2023-01-12T01:54:39.849Z,9.20
2023-01-12T01:57:09.282Z,9.80
2023-01-12T01:59:39.553Z,10.00
2023-01-12T02:02:07.613Z,9.20
2023-01-12T02:04:36.517Z,9.60
2023-01-12T02:07:06.495Z,9.20
2023-01-12T02:09:34.804Z,9.30
2023-01-12T02:12:21.931Z,9.60
2023-01-12T02:15:09.469Z,9.70
2023-01-12T02:17:43.560Z,9.20
2023-01-12T02:20:12.381Z,10.00
2023-01-12T02:22:59.220Z,9.50
2023-01-12T02:25:33.320Z,8.80
2023-01-12T02:28:05.250Z,9.10
2023-01-12T02:30:52.449Z,9.50
2023-01-12T02:35:59.365Z,8.50
2023-01-12T02:38:45.911Z,9.00
2023-01-12T02:41:51.917Z,8.50
2023-01-12T02:44:27.820Z,8.70
2023-01-12T02:46:57.732Z,8.70
2023-01-12T02:49:27.901Z,9.20
2023-01-12T02:51:57.611Z,8.90
2023-01-12T02:54:28.156Z,9.20
2023-01-12T02:57:00.913Z,8.20
2023-01-12T02:59:36.794Z,8.30
2023-01-12T03:02:09.293Z,8.50
2023-01-12T03:04:37.228Z,8.20
2023-01-12T03:07:08.122Z,7.70
2023-01-12T03:09:42.009Z,7.40
2023-01-12T03:12:28.727Z,7.50
2023-01-12T03:14:58.682Z,6.70
2023-01-12T03:17:31.147Z,6.80
2023-01-12T03:20:03.070Z,6.20
2023-01-12T03:22:35.491Z,6.30
2023-01-12T03:25:09.544Z,6.50
2023-01-12T03:27:39.813Z,6.60
2023-01-12T03:30:10.760Z,6.10
2023-01-12T03:32:38.549Z,6.70
2023-01-12T03:35:09.386Z,7.10
2023-01-12T03:37:46.560Z,6.60
2023-01-12T03:40:18.919Z,6.70
2023-01-12T03:42:53.233Z,6.80
2023-01-12T03:45:24.377Z,7.40
2023-01-12T03:47:56.238Z,7.30
2023-01-12T03:50:27.644Z,6.90
2023-01-12T03:52:56.858Z,7.60
2023-01-12T03:55:26.340Z,6.70
2023-01-12T03:57:54.417Z,6.80
2023-01-12T04:00:23.726Z,7.20
2023-01-12T04:03:02.026Z,7.20
2023-01-12T04:05:29.959Z,7.00
2023-01-12T04:07:58.594Z,6.80
2023-01-12T04:10:26.432Z,6.40
2023-01-12T04:12:54.327Z,6.80
2023-01-12T04:15:22.513Z,6.80
2023-01-12T04:17:50.291Z,6.80
2023-01-12T04:20:18.722Z,6.80
2023-01-12T04:22:47.251Z,6.90
2023-01-12T04:25:16.858Z,6.50
2023-01-12T04:27:49.111Z,6.80
2023-01-12T04:30:18.001Z,6.00
2023-01-12T04:32:46.696Z,6.40
2023-01-12T04:35:14.960Z,6.90
2023-01-12T04:37:43.953Z,6.40
2023-01-12T04:40:13.136Z,6.30
2023-01-12T04:43:12.096Z,5.70
2023-01-12T04:45:43.759Z,5.60
2023-01-12T04:48:12.577Z,5.60
2023-01-12T04:50:41.388Z,6.00
2023-01-12T04:53:11.149Z,6.50
2023-01-12T04:55:40.278Z,5.80
2023-01-12T04:58:08.650Z,5.70
2023-01-12T05:00:36.639Z,5.50
2023-01-12T05:03:04.384Z,5.50
2023-01-12T05:05:33.507Z,5.40
2023-01-12T05:08:20.907Z,5.20
2023-01-12T05:10:53.498Z,4.90
2023-01-12T05:13:21.743Z,5.40
2023-01-12T05:15:49.506Z,5.00
2023-01-12T05:18:18.099Z,4.50
2023-01-12T05:20:46.103Z,5.20
2023-01-12T05:23:14.027Z,4.60
2023-01-12T05:25:42.128Z,4.50
2023-01-12T05:28:10.212Z,4.40
2023-01-12T05:30:37.883Z,4.20
2023-01-12T05:33:05.814Z,4.70
2023-01-12T05:35:34.351Z,5.20
2023-01-12T05:38:02.130Z,4.90
2023-01-12T05:40:29.968Z,4.60
2023-01-12T05:43:16.555Z,4.70
2023-01-12T05:45:44.704Z,5.20
2023-01-12T05:48:13.188Z,4.80
2023-01-12T05:50:41.759Z,4.80
2023-01-12T05:53:11.026Z,5.10
2023-01-12T05:55:39.685Z,5.20
2023-01-12T05:58:07.615Z,5.30
2023-01-12T06:00:35.926Z,5.20
2023-01-12T06:03:03.898Z,4.70
2023-01-12T06:05:31.854Z,5.00
2023-01-12T06:08:01.051Z,5.10
2023-01-12T06:10:29.443Z,4.90
2023-01-12T06:13:16.514Z,5.20
2023-01-12T06:15:44.753Z,4.80
2023-01-12T06:18:12.882Z,4.90
2023-01-12T06:20:41.033Z,5.90
2023-01-12T06:23:08.902Z,5.30
2023-01-12T06:25:36.877Z,5.50
2023-01-12T06:28:06.116Z,5.10
2023-01-12T06:30:34.340Z,5.20
2023-01-12T06:33:03.127Z,5.10
2023-01-12T06:35:31.247Z,5.10
2023-01-12T06:37:59.268Z,5.20
2023-01-12T06:40:27.858Z,5.70
2023-01-12T06:42:56.023Z,5.20
2023-01-12T06:45:24.099Z,5.20
2023-01-12T06:47:52.399Z,5.50
2023-01-12T06:50:20.361Z,5.00
2023-01-12T06:52:49.140Z,5.00
2023-01-12T06:55:17.312Z,5.10
2023-01-12T06:57:45.246Z,5.50
2023-01-12T07:00:14.077Z,5.50
2023-01-12T07:02:43.669Z,4.70
2023-01-12T07:05:12.157Z,4.50
2023-01-12T07:07:40.696Z,5.60
2023-01-12T07:10:09.460Z,4.50
2023-01-12T07:12:38.008Z,4.80
2023-01-12T07:15:06.511Z,4.50
2023-01-12T07:17:34.291Z,4.80
2023-01-12T07:20:02.233Z,4.40
2023-01-12T07:22:30.516Z,4.80
2023-01-12T07:24:58.753Z,5.50
2023-01-12T07:27:26.601Z,4.90
2023-01-12T07:29:54.384Z,5.40
2023-01-12T07:32:25.065Z,5.00
2023-01-12T07:34:52.866Z,5.50
2023-01-12T07:37:20.747Z,5.20
2023-01-12T07:39:48.713Z,4.90
2023-01-12T07:42:25.813Z,5.10
2023-01-12T07:44:54.168Z,5.30
2023-01-12T07:47:22.352Z,4.30
2023-01-12T07:49:51.971Z,4.80
2023-01-12T07:52:21.055Z,4.90
2023-01-12T07:54:49.223Z,4.40
2023-01-12T07:57:18.463Z,4.20
2023-01-12T07:59:46.344Z,4.80
2023-01-12T08:02:17.283Z,4.70
2023-01-12T08:04:46.167Z,4.80
2023-01-12T08:07:15.452Z,5.20
2023-01-12T08:09:43.281Z,4.90
2023-01-12T08:12:11.450Z,5.60
2023-01-12T08:14:40.537Z,5.30
2023-01-12T08:17:18.389Z,5.20
2023-01-12T08:19:50.925Z,5.20
2023-01-12T08:22:22.318Z,4.70
2023-01-12T08:24:56.419Z,4.30
2023-01-12T08:27:26.412Z,4.10
2023-01-12T08:29:56.281Z,4.00
2023-01-12T08:32:24.997Z,4.10
2023-01-12T08:34:54.397Z,4.10
2023-01-12T08:37:23.575Z,3.80
2023-01-12T08:39:52.177Z,3.70
2023-01-12T08:42:21.676Z,3.80
2023-01-12T08:44:49.531Z,3.40
2023-01-12T08:47:22.117Z,3.40
2023-01-12T08:49:50.090Z,3.50
2023-01-12T08:52:19.940Z,3.80
2023-01-12T08:54:48.917Z,3.50
2023-01-12T08:57:19.225Z,3.40
2023-01-12T08:59:46.924Z,3.30
2023-01-12T09:02:15.649Z,3.00
2023-01-12T09:04:44.209Z,3.30
2023-01-12T09:07:13.438Z,3.30
2023-01-12T09:09:41.839Z,3.40
2023-01-12T09:12:09.797Z,3.30
2023-01-12T09:14:39.092Z,3.20
2023-01-12T09:17:07.522Z,3.40
2023-01-12T09:19:36.036Z,3.10
2023-01-12T09:22:03.782Z,3.50
2023-01-12T09:24:31.675Z,3.30
2023-01-12T09:27:00.160Z,3.50
2023-01-12T09:29:28.008Z,3.20
2023-01-12T09:31:55.904Z,2.80
2023-01-12T09:34:23.779Z,2.90
2023-01-12T09:36:52.640Z,2.60
2023-01-12T09:39:27.739Z,2.90
2023-01-12T09:42:17.859Z,2.70
2023-01-12T09:45:07.751Z,2.50
2023-01-12T09:47:47.608Z,2.50
2023-01-12T09:50:15.732Z,2.80
2023-01-12T09:52:45.990Z,2.60
2023-01-12T09:55:18.511Z,2.50
2023-01-12T09:57:52.450Z,2.50
2023-01-12T10:00:21.068Z,2.80
2023-01-12T10:02:54.892Z,2.70
2023-01-12T10:05:49.190Z,2.40
2023-01-12T10:08:18.861Z,2.60
2023-01-12T10:11:01.181Z,3.00
2023-01-12T10:13:39.331Z,2.60
2023-01-12T10:16:11.936Z,2.80
2023-01-12T10:18:47.449Z,2.40
2023-01-12T10:21:15.783Z,2.40
2023-01-12T10:23:44.549Z,2.80
2023-01-12T10:26:15.161Z,3.60
2023-01-12T10:28:44.918Z,3.10
2023-01-12T10:31:19.113Z,3.10
2023-01-12T10:34:09.976Z,4.60
2023-01-12T10:36:45.272Z,4.90
2023-01-12T10:39:33.532Z,2.70
2023-01-12T10:42:10.850Z,3.70
2023-01-12T10:44:38.670Z,2.90
2023-01-12T10:47:10.479Z,2.60
2023-01-12T10:49:39.641Z,2.50
2023-01-12T10:52:19.405Z,2.60
2023-01-12T10:54:48.616Z,2.80
2023-01-12T10:57:20.936Z,3.90
2023-01-12T10:59:58.105Z,4.70
2023-01-12T11:02:29.123Z,13.20
2023-01-12T11:04:57.196Z,5.50
2023-01-12T11:07:27.094Z,4.10
2023-01-12T11:09:55.618Z,2.30
2023-01-12T11:12:29.441Z,2.40
2023-01-12T11:15:00.161Z,2.10
2023-01-12T11:17:49.912Z,1.50
2023-01-12T11:20:30.356Z,1.70
2023-01-12T11:23:01.340Z,1.70
2023-01-12T11:25:32.262Z,1.40
2023-01-12T11:28:06.888Z,1.50
2023-01-12T11:30:37.629Z,2.00
2023-01-12T11:33:30.044Z,1.60
2023-01-12T11:36:00.599Z,1.60
2023-01-12T11:38:47.144Z,1.40
2023-01-12T11:41:27.188Z,1.40
2023-01-12T11:44:07.483Z,1.70
2023-01-12T11:46:36.111Z,1.60
2023-01-12T11:49:12.955Z,1.60
2023-01-12T11:51:42.015Z,1.40
2023-01-12T11:54:15.124Z,1.20
2023-01-12T11:56:58.026Z,1.50
2023-01-12T11:59:49.108Z,1.40
2023-01-12T12:02:33.367Z,1.30
2023-01-12T12:05:11.524Z,1.50
2023-01-12T12:07:42.559Z,1.50
2023-01-12T12:10:10.327Z,1.50
2023-01-12T12:12:58.059Z,1.40
2023-01-12T12:15:36.460Z,1.00
2023-01-12T12:18:07.669Z,1.50
2023-01-12T12:20:54.149Z,1.60
2023-01-12T12:23:28.565Z,2.10
2023-01-12T12:26:18.116Z,3.50
2023-01-12T12:28:57.196Z,2.40
2023-01-12T12:31:35.126Z,1.90
2023-01-12T12:34:05.828Z,1.70
2023-01-12T12:36:52.378Z,1.60
2023-01-12T12:42:30.680Z,1.90
2023-01-12T12:45:17.708Z,1.70
2023-01-12T12:47:45.990Z,1.90
2023-01-12T12:50:20.353Z,1.90
2023-01-12T12:52:52.942Z,1.90
2023-01-12T12:55:20.767Z,2.00
2023-01-12T12:58:02.286Z,2.00
2023-01-12T13:00:42.635Z,2.30
2023-01-12T13:03:11.106Z,1.80
2023-01-12T13:05:40.977Z,2.70
2023-01-12T13:08:23.376Z,2.30
2023-01-12T13:10:56.460Z,2.00
2023-01-12T13:13:26.418Z,2.20
2023-01-12T13:16:13.457Z,2.00
2023-01-12T13:21:28.818Z,1.90
2023-01-12T13:24:12.453Z,2.30
2023-01-12T13:26:40.547Z,2.30
2023-01-12T13:29:27.581Z,2.00
2023-01-12T13:34:29.825Z,1.80
2023-01-12T13:37:07.710Z,2.00
2023-01-12T13:39:37.345Z,2.10
2023-01-12T13:42:26.225Z,4.80
2023-01-12T13:44:54.566Z,3.50
2023-01-12T13:47:26.757Z,3.60
2023-01-12T13:49:59.598Z,2.90
2023-01-12T13:52:38.497Z,2.70
2023-01-12T13:55:20.145Z,2.40
2023-01-12T13:57:59.058Z,2.50
2023-01-12T14:00:27.766Z,2.60
2023-01-12T14:02:56.428Z,2.50
2023-01-12T14:05:24.677Z,2.80
2023-01-12T14:08:11.359Z,4.50
2023-01-12T14:10:45.193Z,2.90
2023-01-12T14:13:13.059Z,2.90
2023-01-12T14:16:00.637Z,2.90
2023-01-12T14:18:43.414Z,3.00
2023-01-12T14:21:44.127Z,3.70
2023-01-12T14:24:20.975Z,2.80
2023-01-12T14:26:49.395Z,3.10
2023-01-12T14:29:17.225Z,3.20
2023-01-12T14:31:53.062Z,3.00
2023-01-12T14:34:35.281Z,3.50
2023-01-12T14:37:04.948Z,2.80
2023-01-12T14:39:41.269Z,2.90
2023-01-12T14:42:35.444Z,3.40
2023-01-12T14:45:31.201Z,4.70
2023-01-12T14:48:43.770Z,3.00
2023-01-12T14:51:14.427Z,2.70
2023-01-12T14:53:42.685Z,2.80
2023-01-12T14:56:36.765Z,2.80
2023-01-12T14:59:07.768Z,2.90
2023-01-12T15:01:37.451Z,2.80
2023-01-12T15:04:06.812Z,3.10
2023-01-12T15:06:40.576Z,2.90
2023-01-12T15:09:41.904Z,3.00
2023-01-12T15:12:28.465Z,4.30
2023-01-12T15:15:50.983Z,2.80
2023-01-12T15:18:37.569Z,4.40
2023-01-12T15:21:24.117Z,3.00
2023-01-12T15:24:10.638Z,9.40
2023-01-12T15:26:38.544Z,3.50
2023-01-12T15:29:06.452Z,4.00
2023-01-12T15:31:36.424Z,3.70
2023-01-12T15:34:05.290Z,4.30
2023-01-12T15:36:33.038Z,3.70
2023-01-12T15:39:00.820Z,4.20
2023-01-12T15:42:00.495Z,3.30
2023-01-12T15:44:28.931Z,3.50
2023-01-12T15:46:56.913Z,3.60
2023-01-12T15:49:26.074Z,3.70
2023-01-12T15:51:56.488Z,7.30
2023-01-12T15:54:25.687Z,5.00
2023-01-12T15:56:54.287Z,13.60
2023-01-12T15:59:22.278Z,10.60
2023-01-12T16:01:50.505Z,9.40
2023-01-12T16:07:09.188Z,4.00
2023-01-12T16:09:37.374Z,4.00
2023-01-12T16:12:06.067Z,2.50
2023-01-12T16:14:34.855Z,38.40
2023-01-12T16:17:06.026Z,34.20
2023-01-12T16:19:41.175Z,28.20
2023-01-12T16:22:31.038Z,5.50
2023-01-12T16:24:59.414Z,3.00
2023-01-12T16:27:27.842Z,3.00
2023-01-12T16:29:55.927Z,3.20
2023-01-12T16:32:25.506Z,5.70
2023-01-12T16:34:54.132Z,5.70
2023-01-12T16:37:28.141Z,4.40
2023-01-12T16:39:57.590Z,2.60
2023-01-12T16:42:26.109Z,2.90
2023-01-12T16:44:54.457Z,3.60
2023-01-12T16:47:24.407Z,3.60
2023-01-12T16:49:52.521Z,3.80
2023-01-12T16:52:21.870Z,3.30
2023-01-12T16:54:50.348Z,4.00
2023-01-12T16:57:19.770Z,3.00
2023-01-12T16:59:50.843Z,2.40
2023-01-12T17:02:20.376Z,3.40
2023-01-12T17:04:52.442Z,2.70
2023-01-12T17:07:20.695Z,2.80
2023-01-12T17:09:48.501Z,3.00
2023-01-12T17:12:17.190Z,3.40
2023-01-12T17:14:45.487Z,3.80
2023-01-12T17:17:13.821Z,4.60
2023-01-12T17:19:43.159Z,3.50
2023-01-12T17:22:12.036Z,3.70
2023-01-12T17:24:41.166Z,4.00
2023-01-12T17:27:10.079Z,4.20
2023-01-12T17:29:38.400Z,3.90
2023-01-12T17:32:08.379Z,3.80
2023-01-12T17:34:38.673Z,6.40
2023-01-12T17:37:10.808Z,3.80
2023-01-12T17:39:47.171Z,4.60
2023-01-12T17:42:36.151Z,5.50
2023-01-12T17:45:05.246Z,6.00
2023-01-12T17:47:35.040Z,4.70
2023-01-12T17:50:04.126Z,5.40
2023-01-12T17:52:35.544Z,4.90
2023-01-12T17:55:05.031Z,4.70
2023-01-12T17:57:37.221Z,3.30
2023-01-12T18:00:07.070Z,5.00
2023-01-12T18:02:35.470Z,5.70
2023-01-12T18:05:04.223Z,4.50
2023-01-12T18:07:32.859Z,4.40
2023-01-12T18:10:00.930Z,6.50
2023-01-12T18:12:30.410Z,3.00
2023-01-12T18:14:59.269Z,4.40
2023-01-12T18:17:29.795Z,3.30
2023-01-12T18:19:58.959Z,5.40
2023-01-12T18:22:26.956Z,4.20
2023-01-12T18:24:55.025Z,4.10
2023-01-12T18:27:23.508Z,4.00
2023-01-12T18:29:51.739Z,13.70
2023-01-12T18:32:19.784Z,8.50
2023-01-12T18:34:48.136Z,8.00
2023-01-12T18:37:18.117Z,4.80
2023-01-12T18:39:46.956Z,7.00
2023-01-12T18:42:34.251Z,11.80
2023-01-12T18:45:04.576Z,5.90
2023-01-12T18:47:52.324Z,11.00
2023-01-12T18:50:39.632Z,11.00
2023-01-12T18:53:25.998Z,10.50
2023-01-12T18:55:57.065Z,9.40
2023-01-12T18:58:27.844Z,8.60
2023-01-12T19:01:13.926Z,7.00
2023-01-12T19:03:42.412Z,6.60
2023-01-12T19:06:28.133Z,6.10
2023-01-12T19:09:14.925Z,4.70
2023-01-12T19:11:43.348Z,4.60
2023-01-12T19:14:29.815Z,4.50
2023-01-12T19:17:18.593Z,3.80
2023-01-12T19:19:48.228Z,2.50
2023-01-12T19:22:37.890Z,2.80
2023-01-12T19:25:26.395Z,2.90
2023-01-12T19:30:44.411Z,2.20
2023-01-12T19:33:16.405Z,2.10
2023-01-12T19:35:48.369Z,2.10
2023-01-12T19:38:17.847Z,2.20
2023-01-12T19:40:56.342Z,2.00
2023-01-12T19:43:28.110Z,2.60
2023-01-12T19:46:01.269Z,2.30
2023-01-12T19:48:33.984Z,1.90
2023-01-12T19:51:10.820Z,2.30
2023-01-12T19:53:41.492Z,2.10
2023-01-12T19:56:12.626Z,1.80
2023-01-12T19:58:42.838Z,2.00
2023-01-12T20:01:21.224Z,1.90
2023-01-12T20:03:52.133Z,2.00
2023-01-12T20:06:21.010Z,1.70
2023-01-12T20:08:49.998Z,2.00
2023-01-12T20:11:20.935Z,2.10
2023-01-12T20:13:51.553Z,1.70
2023-01-12T20:16:25.601Z,2.00
2023-01-12T20:18:56.790Z,1.80
2023-01-12T20:21:27.129Z,2.30
2023-01-12T20:23:57.160Z,1.80
2023-01-12T20:26:27.431Z,1.80
2023-01-12T20:28:57.497Z,2.00
2023-01-12T20:31:26.534Z,1.90
2023-01-12T20:33:54.914Z,2.10
2023-01-12T20:36:23.219Z,2.30
2023-01-12T20:38:53.072Z,1.80
2023-01-12T20:41:22.845Z,1.70
2023-01-12T20:43:52.924Z,2.00
2023-01-12T20:46:22.757Z,1.80
2023-01-12T20:48:52.660Z,1.70
2023-01-12T20:51:21.989Z,1.70
2023-01-12T20:53:50.150Z,2.20
2023-01-12T20:56:19.437Z,2.50
2023-01-12T20:58:48.244Z,2.20
2023-01-12T21:01:17.051Z,1.90
2023-01-12T21:03:45.669Z,1.80
2023-01-12T21:06:16.080Z,2.10
2023-01-12T21:08:44.914Z,2.00
2023-01-12T21:11:14.431Z,1.70
2023-01-12T21:13:44.470Z,2.10
2023-01-12T21:16:14.384Z,2.00
2023-01-12T21:18:43.210Z,1.80
2023-01-12T21:21:12.193Z,1.80
2023-01-12T21:23:40.920Z,1.90
2023-01-12T21:26:09.883Z,2.20
2023-01-12T21:28:39.829Z,2.00
2023-01-12T21:31:10.665Z,1.70
2023-01-12T21:33:39.428Z,1.90
2023-01-12T21:36:08.152Z,1.90
2023-01-12T21:38:36.510Z,1.80
2023-01-12T21:41:05.310Z,1.90
2023-01-12T21:43:35.475Z,1.80
2023-01-12T21:46:09.064Z,2.00
2023-01-12T21:48:37.107Z,1.90
2023-01-12T21:51:05.846Z,1.80
2023-01-12T21:53:34.562Z,1.90
2023-01-12T21:56:04.211Z,2.00
2023-01-12T21:58:34.275Z,1.90
2023-01-12T22:01:12.862Z,1.80
2023-01-12T22:03:41.447Z,2.00
2023-01-12T22:06:10.919Z,2.00
2023-01-12T22:08:40.143Z,1.70
2023-01-12T22:11:09.725Z,2.00
2023-01-12T22:13:39.105Z,1.90
2023-01-12T22:16:09.557Z,2.10
2023-01-12T22:18:38.967Z,2.40
2023-01-12T22:21:08.591Z,1.70
2023-01-12T22:23:37.198Z,1.90
2023-01-12T22:26:07.244Z,2.00
2023-01-12T22:28:36.514Z,2.00
2023-01-12T22:31:13.113Z,1.70
2023-01-12T22:33:44.392Z,2.00
2023-01-12T22:36:12.937Z,1.80
2023-01-12T22:38:42.250Z,2.00
2023-01-12T22:41:11.167Z,2.00
2023-01-12T22:43:42.597Z,1.70
2023-01-12T22:46:15.731Z,1.90
2023-01-12T22:48:45.162Z,1.80
2023-01-12T22:51:13.509Z,1.80
2023-01-12T22:53:42.260Z,2.20
2023-01-12T22:56:11.432Z,2.10
2023-01-12T22:58:41.003Z,1.70
2023-01-12T23:01:10.060Z,1.70
2023-01-12T23:03:38.924Z,1.70
2023-01-12T23:06:11.495Z,1.90
2023-01-12T23:08:39.901Z,1.60
2023-01-12T23:11:11.127Z,1.50
2023-01-12T23:13:39.705Z,1.40
2023-01-12T23:16:08.809Z,1.30
2023-01-12T23:18:40.347Z,1.70
2023-01-12T23:21:14.558Z,1.60
2023-01-12T23:23:44.202Z,1.40
2023-01-12T23:26:13.575Z,1.60
2023-01-12T23:28:45.466Z,1.20
2023-01-12T23:31:15.028Z,1.40
2023-01-12T23:33:45.658Z,1.40
2023-01-12T23:36:14.964Z,1.60
2023-01-12T23:38:43.267Z,1.60
2023-01-12T23:41:27.667Z,1.60
2023-01-12T23:43:57.881Z,1.50
2023-01-12T23:46:27.308Z,1.60
2023-01-12T23:48:56.552Z,1.50
2023-01-12T23:51:25.201Z,1.50
2023-01-12T23:53:53.938Z,1.50
2023-01-12T23:56:22.307Z,1.30
2023-01-12T23:58:50.305Z,1.60
